createdAt,value
2022-12-16T00:02:05.131Z,25.13
2022-12-16T00:04:33.259Z,25.30
2022-12-16T00:07:02.255Z,24.00
2022-12-16T00:09:30.229Z,24.77
2022-12-16T00:11:58.369Z,24.47
2022-12-16T00:14:29.267Z,24.37
2022-12-16T00:16:58.714Z,23.57
2022-12-16T00:19:26.880Z,23.63
2022-12-16T00:21:54.826Z,23.70
2022-12-16T00:24:22.912Z,22.97
2022-12-16T00:26:51.305Z,23.03
2022-12-16T00:29:20.058Z,22.70
2022-12-16T00:31:49.486Z,22.57
2022-12-16T00:34:18.248Z,23.20
2022-12-16T00:36:47.040Z,23.27
2022-12-16T00:39:15.790Z,22.80
2022-12-16T00:41:43.918Z,23.23
2022-12-16T00:44:12.075Z,23.07
2022-12-16T00:46:40.197Z,22.83
2022-12-16T00:49:09.743Z,24.13
2022-12-16T00:51:37.903Z,23.43
2022-12-16T00:54:05.932Z,23.07
2022-12-16T00:56:33.967Z,23.43
2022-12-16T00:59:01.982Z,23.23
2022-12-16T01:01:30.249Z,23.90
2022-12-16T01:03:58.822Z,24.13
2022-12-16T01:06:28.269Z,24.10
2022-12-16T01:08:56.792Z,24.90
2022-12-16T01:11:24.855Z,23.83
2022-12-16T01:13:55.022Z,24.43
2022-12-16T01:16:23.762Z,24.40
2022-12-16T01:18:52.117Z,25.03
2022-12-16T01:21:20.150Z,24.70
2022-12-16T01:23:50.480Z,25.17
2022-12-16T01:26:20.357Z,26.07
2022-12-16T01:28:49.546Z,25.70
2022-12-16T01:31:19.813Z,26.30
2022-12-16T01:33:48.262Z,26.27
2022-12-16T01:36:20.103Z,25.03
2022-12-16T01:38:49.581Z,25.13
2022-12-16T01:41:19.166Z,25.20
2022-12-16T01:43:47.943Z,24.37
2022-12-16T01:46:21.296Z,25.07
2022-12-16T01:49:00.266Z,25.00
2022-12-16T01:51:32.055Z,24.77
2022-12-16T01:54:05.844Z,24.97
2022-12-16T01:56:35.493Z,25.60
2022-12-16T01:59:04.156Z,25.63
2022-12-16T02:01:32.398Z,26.20
2022-12-16T02:04:03.939Z,25.37
2022-12-16T02:06:32.941Z,25.00
2022-12-16T02:09:08.843Z,25.93
2022-12-16T02:11:58.386Z,24.47
2022-12-16T02:14:55.599Z,23.70
2022-12-16T02:17:31.577Z,23.90
2022-12-16T02:20:32.478Z,23.10
2022-12-16T02:23:23.948Z,23.07
2022-12-16T02:26:27.570Z,22.60
2022-12-16T02:29:13.959Z,23.43
2022-12-16T02:31:53.829Z,23.80
2022-12-16T02:34:31.399Z,23.40
2022-12-16T02:37:10.679Z,23.57
2022-12-16T02:39:40.748Z,23.27
2022-12-16T02:42:16.394Z,22.70
2022-12-16T02:44:54.176Z,23.57
2022-12-16T02:47:23.639Z,23.87
2022-12-16T02:49:53.324Z,23.80
2022-12-16T02:52:24.632Z,23.87
2022-12-16T02:54:57.015Z,22.17
2022-12-16T02:57:49.608Z,23.20
2022-12-16T03:00:21.221Z,22.80
2022-12-16T03:02:59.544Z,21.20
2022-12-16T03:05:31.726Z,22.83
2022-12-16T03:08:03.746Z,21.30
2022-12-16T03:10:36.798Z,21.40
2022-12-16T03:13:07.672Z,21.43
2022-12-16T03:15:37.526Z,21.00
2022-12-16T03:18:10.900Z,20.93
2022-12-16T03:20:45.049Z,20.33
2022-12-16T03:23:18.519Z,20.97
2022-12-16T03:25:52.074Z,21.03
2022-12-16T03:28:35.352Z,19.80
2022-12-16T03:31:09.633Z,18.87
2022-12-16T03:33:45.539Z,19.87
2022-12-16T03:36:18.558Z,20.83
2022-12-16T03:38:48.256Z,20.93
2022-12-16T03:41:18.612Z,20.47
2022-12-16T03:43:46.824Z,20.47
2022-12-16T03:46:17.434Z,20.07
2022-12-16T03:48:51.862Z,20.23
2022-12-16T03:51:20.833Z,18.73
2022-12-16T03:53:49.013Z,19.87
2022-12-16T03:56:20.318Z,20.13
2022-12-16T03:58:48.457Z,19.67
2022-12-16T04:01:16.808Z,19.20
2022-12-16T04:03:45.053Z,19.40
2022-12-16T04:06:18.975Z,19.77
2022-12-16T04:08:47.547Z,21.20
2022-12-16T04:11:33.880Z,19.10
2022-12-16T04:14:19.718Z,19.83
2022-12-16T04:17:10.422Z,18.57
2022-12-16T04:19:57.199Z,20.03
2022-12-16T04:22:48.291Z,20.10
2022-12-16T04:25:19.769Z,19.77
2022-12-16T04:27:53.855Z,21.67
2022-12-16T04:30:23.117Z,21.40
2022-12-16T04:33:12.230Z,22.03
2022-12-16T04:35:58.005Z,20.80
2022-12-16T04:38:45.300Z,20.37
2022-12-16T04:41:33.799Z,22.73
2022-12-16T04:44:19.565Z,21.40
2022-12-16T04:47:05.200Z,21.27
2022-12-16T04:49:51.170Z,21.60
2022-12-16T04:52:37.089Z,19.53
2022-12-16T04:55:25.972Z,21.87
2022-12-16T04:58:12.785Z,21.50
2022-12-16T05:00:59.596Z,23.63
2022-12-16T05:03:47.408Z,21.80
2022-12-16T05:06:33.732Z,23.17
2022-12-16T05:09:19.656Z,24.43
2022-12-16T05:12:06.923Z,25.50
2022-12-16T05:14:52.833Z,24.73
2022-12-16T05:17:38.989Z,24.63
2022-12-16T05:20:25.989Z,25.63
2022-12-16T05:23:14.438Z,24.87
2022-12-16T05:26:00.794Z,24.77
2022-12-16T05:28:47.939Z,25.83
2022-12-16T05:31:35.783Z,26.20
2022-12-16T05:34:21.782Z,27.47
2022-12-16T05:37:07.322Z,26.67
2022-12-16T05:39:52.655Z,27.67
2022-12-16T05:42:38.075Z,26.70
2022-12-16T05:45:25.684Z,25.23
2022-12-16T05:48:10.976Z,25.17
2022-12-16T05:50:56.573Z,26.70
2022-12-16T05:53:42.091Z,26.43
2022-12-16T05:56:27.785Z,25.53
2022-12-16T05:59:12.999Z,26.10
2022-12-16T06:01:59.791Z,24.30
2022-12-16T06:04:45.506Z,25.30
2022-12-16T06:07:32.005Z,25.70
2022-12-16T06:10:18.337Z,24.67
2022-12-16T06:13:20.143Z,25.50
2022-12-16T06:16:08.852Z,25.73
2022-12-16T06:18:58.749Z,25.90
2022-12-16T06:21:45.120Z,25.83
2022-12-16T06:24:28.711Z,27.13
2022-12-16T06:27:14.899Z,26.40
2022-12-16T06:30:00.690Z,25.33
2022-12-16T06:32:49.638Z,25.67
2022-12-16T06:35:38.551Z,25.47
2022-12-16T06:38:24.341Z,25.70
2022-12-16T06:41:11.804Z,24.43
2022-12-16T06:43:57.499Z,25.10
2022-12-16T06:46:39.641Z,27.07
2022-12-16T06:49:25.364Z,26.37
2022-12-16T06:52:12.036Z,26.40
2022-12-16T06:54:57.248Z,26.03
2022-12-16T06:57:42.144Z,26.83
2022-12-16T07:00:28.959Z,27.20
2022-12-16T07:03:14.287Z,27.30
2022-12-16T07:05:59.638Z,26.97
2022-12-16T07:08:46.335Z,27.33
2022-12-16T07:11:31.865Z,28.03
2022-12-16T07:14:17.376Z,27.63
2022-12-16T07:17:16.748Z,28.53
2022-12-16T07:20:02.889Z,28.53
2022-12-16T07:23:08.359Z,27.17
2022-12-16T07:25:58.734Z,27.73
2022-12-16T07:28:44.602Z,28.33
2022-12-16T07:31:30.009Z,28.37
2022-12-16T07:34:15.809Z,27.80
2022-12-16T07:37:01.242Z,28.57
2022-12-16T07:39:51.341Z,29.20
2022-12-16T07:42:42.258Z,28.43
2022-12-16T07:45:28.840Z,27.60
2022-12-16T07:48:14.474Z,26.77
2022-12-16T07:51:00.723Z,27.17
2022-12-16T07:53:43.055Z,26.23
2022-12-16T07:56:28.940Z,27.03
2022-12-16T07:59:16.257Z,25.83
2022-12-16T08:02:02.940Z,26.80
2022-12-16T08:04:49.090Z,26.73
2022-12-16T08:07:34.443Z,28.17
2022-12-16T08:10:20.301Z,27.63
2022-12-16T08:13:05.819Z,26.30
2022-12-16T08:15:52.649Z,27.47
2022-12-16T08:18:38.242Z,26.77
2022-12-16T08:21:25.486Z,26.73
2022-12-16T08:24:11.206Z,25.87
2022-12-16T08:26:56.936Z,27.67
2022-12-16T08:29:44.702Z,26.27
2022-12-16T08:32:32.991Z,26.57
2022-12-16T08:35:33.153Z,26.33
2022-12-16T08:38:18.777Z,26.07
2022-12-16T08:41:04.622Z,26.83
2022-12-16T08:43:50.995Z,26.87
2022-12-16T08:46:37.045Z,26.73
2022-12-16T08:49:24.443Z,26.87
2022-12-16T08:52:09.688Z,26.00
2022-12-16T08:54:55.201Z,25.57
2022-12-16T08:57:41.034Z,26.43
2022-12-16T09:00:28.461Z,25.57
2022-12-16T09:03:17.884Z,26.40
2022-12-16T09:06:05.344Z,25.87
2022-12-16T09:09:02.877Z,26.23
2022-12-16T09:11:48.346Z,26.97
2022-12-16T09:14:33.065Z,25.60
2022-12-16T09:17:18.643Z,26.30
2022-12-16T09:20:04.326Z,25.53
2022-12-16T09:22:51.463Z,25.57
2022-12-16T09:25:37.113Z,24.80
2022-12-16T09:28:22.676Z,25.10
2022-12-16T09:31:08.090Z,25.40
2022-12-16T09:33:54.224Z,25.40
2022-12-16T09:36:39.740Z,24.80
2022-12-16T09:39:27.022Z,23.97
2022-12-16T09:42:20.285Z,23.60
2022-12-16T09:45:15.887Z,22.97
2022-12-16T09:48:13.090Z,22.60
2022-12-16T09:51:02.540Z,22.00
2022-12-16T09:53:53.321Z,22.87
2022-12-16T09:56:46.751Z,20.60
2022-12-16T09:59:35.541Z,21.57
2022-12-16T10:02:17.688Z,22.57
2022-12-16T10:05:05.515Z,21.63
2022-12-16T10:07:54.971Z,23.27
2022-12-16T10:10:49.819Z,23.53
2022-12-16T10:13:46.394Z,24.87
2022-12-16T10:16:40.805Z,26.37
2022-12-16T10:19:35.897Z,26.93
2022-12-16T10:22:29.926Z,24.70
2022-12-16T10:25:25.182Z,25.03
2022-12-16T10:28:19.374Z,25.33
2022-12-16T10:31:08.608Z,23.30
2022-12-16T10:33:56.848Z,23.27
2022-12-16T10:36:43.694Z,24.87
2022-12-16T10:39:45.840Z,19.07
2022-12-16T10:42:41.608Z,14.10
2022-12-16T10:45:40.855Z,9.43
2022-12-16T10:48:30.853Z,8.50
2022-12-16T10:51:19.060Z,8.53
2022-12-16T10:54:08.702Z,7.03
2022-12-16T10:57:10.775Z,7.73
2022-12-16T11:00:00.293Z,6.00
2022-12-16T11:02:47.304Z,7.03
2022-12-16T11:05:50.620Z,5.67
2022-12-16T11:08:48.188Z,5.27
2022-12-16T11:11:41.379Z,5.30
2022-12-16T11:14:36.732Z,5.43
2022-12-16T11:17:37.485Z,5.07
2022-12-16T11:20:32.225Z,5.80
2022-12-16T11:23:43.674Z,5.10
2022-12-16T11:26:36.379Z,4.77
2022-12-16T11:29:34.243Z,5.60
2022-12-16T11:32:23.638Z,5.17
2022-12-16T11:35:13.069Z,5.13
2022-12-16T11:38:00.272Z,4.90
2022-12-16T11:40:48.956Z,5.23
2022-12-16T11:43:37.125Z,5.40
2022-12-16T11:46:27.679Z,3.70
2022-12-16T11:49:24.797Z,4.00
2022-12-16T11:52:35.797Z,4.40
2022-12-16T11:55:48.130Z,4.30
2022-12-16T11:58:52.189Z,4.43
2022-12-16T12:01:45.542Z,3.93
2022-12-16T12:04:32.218Z,3.17
2022-12-16T12:07:30.145Z,2.70
2022-12-16T12:10:29.038Z,2.60
2022-12-16T12:13:20.477Z,2.13
2022-12-16T12:16:16.044Z,1.90
2022-12-16T12:19:09.153Z,1.70
2022-12-16T12:22:02.610Z,2.30
2022-12-16T12:24:58.224Z,1.70
2022-12-16T12:27:51.147Z,1.97
2022-12-16T12:30:39.265Z,2.00
2022-12-16T12:33:40.471Z,2.17
2022-12-16T12:36:37.941Z,2.47
2022-12-16T12:39:37.157Z,2.10
2022-12-16T12:42:36.145Z,1.93
2022-12-16T12:45:43.969Z,2.07
2022-12-16T12:48:40.121Z,2.00
2022-12-16T12:51:33.271Z,2.03
2022-12-16T12:54:33.116Z,2.03
2022-12-16T12:57:23.303Z,1.90
2022-12-16T13:00:15.190Z,1.80
2022-12-16T13:03:06.976Z,1.70
2022-12-16T13:05:59.435Z,1.90
2022-12-16T13:09:14.211Z,1.87
2022-12-16T13:12:39.367Z,1.97
2022-12-16T13:15:26.496Z,2.00
2022-12-16T13:18:32.082Z,1.60
2022-12-16T13:21:19.472Z,1.30
2022-12-16T13:24:05.461Z,1.80
2022-12-16T13:26:53.157Z,1.97
2022-12-16T13:29:41.814Z,2.00
2022-12-16T13:32:37.261Z,1.60
2022-12-16T13:35:33.937Z,1.60
2022-12-16T13:38:23.000Z,1.70
2022-12-16T13:41:12.696Z,1.80
2022-12-16T13:44:11.364Z,1.97
2022-12-16T13:47:02.037Z,2.07
2022-12-16T13:50:03.591Z,1.87
2022-12-16T13:53:01.374Z,2.00
2022-12-16T13:55:51.029Z,2.60
2022-12-16T13:58:44.787Z,2.50
2022-12-16T14:01:33.537Z,2.53
2022-12-16T14:04:28.070Z,2.30
2022-12-16T14:07:22.847Z,2.37
2022-12-16T14:10:11.699Z,2.33
2022-12-16T14:13:10.618Z,1.90
2022-12-16T14:16:10.414Z,2.20
2022-12-16T14:19:04.361Z,2.10
2022-12-16T14:21:57.404Z,2.00
2022-12-16T14:24:45.456Z,2.57
2022-12-16T14:27:34.883Z,2.20
2022-12-16T14:30:35.644Z,2.00
2022-12-16T14:33:43.157Z,2.30
2022-12-16T14:36:40.388Z,2.43
2022-12-16T14:39:30.491Z,2.30
2022-12-16T14:42:16.379Z,2.03
2022-12-16T14:45:04.479Z,2.70
2022-12-16T14:47:51.211Z,2.17
2022-12-16T14:50:40.017Z,2.80
2022-12-16T14:53:33.243Z,2.17
2022-12-16T14:56:57.645Z,2.80
2022-12-16T14:59:43.174Z,2.50
2022-12-16T15:02:43.004Z,2.50
2022-12-16T15:05:30.976Z,2.90
2022-12-16T15:08:17.111Z,2.57
2022-12-16T15:11:02.813Z,2.47
2022-12-16T15:13:49.031Z,2.50
2022-12-16T15:16:38.340Z,2.30
2022-12-16T15:19:24.917Z,2.27
2022-12-16T15:22:21.216Z,2.20
2022-12-16T15:25:06.917Z,2.83
2022-12-16T15:27:56.612Z,2.60
2022-12-16T15:30:56.719Z,2.60
2022-12-16T15:33:44.013Z,2.77
2022-12-16T15:36:44.912Z,2.13
2022-12-16T15:39:59.687Z,2.37
2022-12-16T15:42:44.188Z,2.60
2022-12-16T15:45:43.637Z,2.60
2022-12-16T15:48:33.367Z,2.70
2022-12-16T15:51:20.017Z,2.80
2022-12-16T15:54:19.857Z,2.80
2022-12-16T15:57:07.624Z,2.50
2022-12-16T15:59:57.062Z,3.67
2022-12-16T16:02:51.078Z,3.70
2022-12-16T16:05:39.459Z,3.53
2022-12-16T16:08:25.872Z,3.63
2022-12-16T16:11:11.960Z,3.00
2022-12-16T16:14:06.141Z,4.07
2022-12-16T16:16:55.593Z,4.97
2022-12-16T16:19:49.109Z,4.40
2022-12-16T16:22:39.007Z,4.93
2022-12-16T16:25:27.092Z,4.57
2022-12-16T16:28:39.422Z,4.43
2022-12-16T16:31:28.397Z,4.70
2022-12-16T16:34:14.311Z,4.57
2022-12-16T16:36:59.872Z,6.07
2022-12-16T16:39:45.554Z,5.57
2022-12-16T16:42:30.847Z,6.67
2022-12-16T16:45:16.280Z,5.37
2022-12-16T16:48:04.007Z,5.47
2022-12-16T16:50:49.677Z,4.93
2022-12-16T16:53:35.284Z,5.10
2022-12-16T16:56:22.268Z,5.40
2022-12-16T16:59:07.831Z,4.57
2022-12-16T17:01:53.721Z,5.00
2022-12-16T17:04:40.844Z,5.20
2022-12-16T17:07:26.628Z,5.87
2022-12-16T17:10:12.003Z,6.30
2022-12-16T17:13:04.454Z,6.10
2022-12-16T17:15:53.231Z,6.73
2022-12-16T17:18:44.666Z,6.60
2022-12-16T17:21:32.932Z,7.37
2022-12-16T17:24:18.628Z,8.20
2022-12-16T17:27:04.416Z,7.53
2022-12-16T17:29:49.884Z,8.07
2022-12-16T17:32:46.558Z,8.27
2022-12-16T17:35:31.886Z,7.53
2022-12-16T17:38:19.291Z,9.60
2022-12-16T17:41:10.137Z,10.97
2022-12-16T17:43:55.751Z,10.57
2022-12-16T17:46:41.115Z,10.60
2022-12-16T17:49:28.619Z,11.03
2022-12-16T17:52:13.895Z,12.80
2022-12-16T17:55:01.039Z,11.03
2022-12-16T17:57:46.553Z,11.80
2022-12-16T18:00:33.155Z,13.10
2022-12-16T18:03:19.221Z,14.97
2022-12-16T18:06:04.940Z,15.13
2022-12-16T18:08:46.817Z,13.23
2022-12-16T18:11:38.590Z,12.97
2022-12-16T18:14:24.901Z,14.10
2022-12-16T18:17:10.445Z,14.53
2022-12-16T18:19:59.317Z,13.10
2022-12-16T18:22:44.592Z,13.67
2022-12-16T18:25:32.516Z,12.30
2022-12-16T18:28:19.814Z,12.90
2022-12-16T18:31:05.270Z,14.87
2022-12-16T18:33:52.911Z,14.07
2022-12-16T18:36:38.207Z,16.37
2022-12-16T18:39:23.732Z,17.00
2022-12-16T18:42:09.431Z,17.43
2022-12-16T18:45:01.224Z,17.67
2022-12-16T18:47:47.473Z,16.50
2022-12-16T18:50:37.732Z,16.73
2022-12-16T18:53:25.082Z,18.47
2022-12-16T18:56:18.873Z,18.77
2022-12-16T18:59:04.198Z,18.67
2022-12-16T19:01:51.017Z,20.10
2022-12-16T19:04:36.417Z,21.47
2022-12-16T19:07:36.309Z,22.13
2022-12-16T19:10:21.697Z,20.23
2022-12-16T19:13:07.371Z,21.80
2022-12-16T19:15:52.931Z,22.57
2022-12-16T19:18:39.940Z,22.97
2022-12-16T19:21:25.493Z,24.47
2022-12-16T19:24:07.497Z,25.10
2022-12-16T19:26:53.240Z,25.43
2022-12-16T19:29:42.411Z,24.10
2022-12-16T19:32:27.979Z,23.90
2022-12-16T19:35:15.571Z,23.53
2022-12-16T19:38:01.006Z,23.27
2022-12-16T19:40:46.605Z,24.67
2022-12-16T19:43:31.975Z,23.93
2022-12-16T19:46:17.229Z,24.57
2022-12-16T19:49:02.684Z,26.37
2022-12-16T19:51:49.669Z,25.13
2022-12-16T19:54:43.460Z,25.80
2022-12-16T19:57:28.955Z,25.50
2022-12-16T20:00:14.539Z,25.23
2022-12-16T20:03:00.130Z,23.47
2022-12-16T20:05:45.823Z,24.53
2022-12-16T20:08:33.715Z,26.33
2022-12-16T20:11:24.046Z,25.63
2022-12-16T20:14:11.478Z,26.20
2022-12-16T20:16:57.197Z,28.30
2022-12-16T20:19:43.105Z,26.60
2022-12-16T20:22:28.928Z,26.77
2022-12-16T20:25:15.949Z,26.70
2022-12-16T20:28:01.432Z,25.90
2022-12-16T20:30:46.801Z,26.23
2022-12-16T20:33:32.872Z,27.30
2022-12-16T20:36:19.672Z,24.63
2022-12-16T20:39:05.864Z,26.17
2022-12-16T20:41:56.282Z,25.27
2022-12-16T20:44:41.927Z,23.50
2022-12-16T20:47:27.192Z,24.77
2022-12-16T20:50:13.014Z,25.50
2022-12-16T20:52:58.602Z,25.00
2022-12-16T20:55:44.239Z,26.70
2022-12-16T20:58:35.766Z,26.63
2022-12-16T21:01:21.212Z,25.87
2022-12-16T21:04:06.614Z,24.27
2022-12-16T21:06:57.523Z,26.73
2022-12-16T21:09:42.328Z,28.93
2022-12-16T21:12:27.849Z,27.83
2022-12-16T21:15:14.741Z,27.63
2022-12-16T21:18:00.487Z,28.43
2022-12-16T21:20:45.642Z,28.03
2022-12-16T21:23:31.434Z,29.70
2022-12-16T21:26:18.002Z,28.37
2022-12-16T21:29:03.711Z,28.57
2022-12-16T21:31:59.156Z,27.93
2022-12-16T21:34:44.824Z,30.37
2022-12-16T21:37:30.121Z,30.03
2022-12-16T21:40:15.665Z,29.90
2022-12-16T21:43:12.795Z,29.70
2022-12-16T21:45:57.964Z,31.03
2022-12-16T21:48:45.126Z,31.00
2022-12-16T21:51:30.851Z,31.37
2022-12-16T21:54:16.352Z,31.63
2022-12-16T21:57:01.645Z,31.97
2022-12-16T21:59:47.319Z,30.50
2022-12-16T22:02:33.332Z,31.23
2022-12-16T22:05:20.222Z,29.90
2022-12-16T22:08:06.203Z,33.07
2022-12-16T22:10:51.798Z,33.00
2022-12-16T22:13:36.838Z,30.20
2022-12-16T22:16:23.382Z,33.30
2022-12-16T22:19:12.118Z,32.40
2022-12-16T22:22:13.435Z,31.80
2022-12-16T22:24:58.691Z,30.50
2022-12-16T22:27:44.036Z,31.63
2022-12-16T22:30:30.128Z,33.27
2022-12-16T22:33:15.813Z,32.07
2022-12-16T22:36:01.066Z,33.00
2022-12-16T22:38:51.902Z,33.33
2022-12-16T22:41:37.317Z,33.47
2022-12-16T22:44:22.448Z,36.90
2022-12-16T22:47:07.993Z,37.27
2022-12-16T22:49:53.880Z,36.20
2022-12-16T22:52:41.612Z,37.87
2022-12-16T22:55:28.538Z,36.57
2022-12-16T22:58:14.341Z,38.57
2022-12-16T23:01:00.039Z,39.17
2022-12-16T23:03:47.447Z,35.50
2022-12-16T23:06:33.006Z,36.07
2022-12-16T23:09:18.527Z,37.33
2022-12-16T23:12:05.430Z,37.30
2022-12-16T23:14:52.848Z,35.83
2022-12-16T23:17:39.223Z,33.00
2022-12-16T23:20:26.037Z,34.67
2022-12-16T23:23:24.417Z,35.23
2022-12-16T23:26:14.468Z,35.37
2022-12-16T23:29:01.792Z,35.77
2022-12-16T23:31:43.928Z,35.10
2022-12-16T23:34:29.535Z,36.00
2022-12-16T23:37:15.333Z,36.73
2022-12-16T23:40:00.895Z,36.13
2022-12-16T23:42:46.231Z,36.90
2022-12-16T23:45:33.709Z,37.00
2022-12-16T23:48:20.611Z,37.23
2022-12-16T23:51:05.790Z,37.63
2022-12-16T23:53:51.540Z,38.67
2022-12-16T23:56:37.224Z,39.37
2022-12-16T23:59:34.178Z,41.87
